Time;durP1;ratioP1;P1;durP2;ratioP2;P2;SDS_P1;SDS_P2;PMS_P1;PMS_P2;Temp;Humidity;BMP_temperature;BMP_pressure;BME280_temperature;BME280_humidity;BME280_pressure;Samples;Min_cycle;Max_cycle;Signal;HPM_P1;HPM_P2
2022/10/09 00:00:45;;;;;;;0.00;0.00;;;;;;;7.67;100.00;99437.22;4986754;28;20572;-52
2022/10/09 00:03:12;;;;;;;0.00;0.00;;;;;;;7.69;100.00;99439.72;4983303;28;20313;-52
2022/10/09 00:05:39;;;;;;;0.00;0.00;;;;;;;7.62;100.00;99435.91;4988492;28;20241;-55
2022/10/09 00:08:06;;;;;;;0.00;0.00;;;;;;;7.63;100.00;99430.59;4986063;28;20376;-56
2022/10/09 00:10:33;;;;;;;0.00;0.00;;;;;;;7.65;100.00;99433.06;4987226;28;20241;-55
2022/10/09 00:12:59;;;;;;;0.00;0.00;;;;;;;7.69;100.00;99439.72;4983721;28;20231;-54
2022/10/09 00:15:26;;;;;;;0.00;0.00;;;;;;;7.67;100.00;99426.00;4987173;28;20324;-55
2022/10/09 00:17:54;;;;;;;0.00;0.00;;;;;;;7.66;100.00;99427.78;4984598;28;20287;-54
2022/10/09 00:20:21;;;;;;;0.00;0.00;;;;;;;7.61;100.00;99427.28;4987201;28;20229;-52
2022/10/09 00:22:47;;;;;;;0.00;0.00;;;;;;;7.62;100.00;99428.94;4986521;28;20308;-55
2022/10/09 00:25:14;;;;;;;0.00;0.00;;;;;;;7.60;100.00;99425.63;4984791;28;20753;-54
2022/10/09 00:27:41;;;;;;;0.00;0.00;;;;;;;7.67;100.00;99426.00;4986369;28;20245;-53
2022/10/09 00:30:08;;;;;;;0.00;0.00;;;;;;;7.65;100.00;99428.72;4955756;28;20226;-52
2022/10/09 00:32:35;;;;;;;0.00;0.00;;;;;;;7.68;100.00;99420.69;4986321;28;20246;-54
2022/10/09 00:35:05;;;;;;;0.00;0.00;;;;;;;7.70;100.00;99423.16;4967848;28;20244;-53
2022/10/09 00:37:32;;;;;;;0.00;0.00;;;;;;;7.62;100.00;99415.94;4985819;28;20288;-52
2022/10/09 00:39:58;;;;;;;0.00;0.00;;;;;;;7.63;100.00;99422.81;4983312;28;20288;-52
2022/10/09 00:42:25;;;;;;;0.00;0.00;;;;;;;7.67;100.00;99413.84;4985808;28;20284;-53
2022/10/09 00:44:56;;;;;;;0.00;0.00;;;;;;;7.68;100.00;99417.25;4984803;28;20586;-53
2022/10/09 00:47:29;;;;;;;0.00;0.00;;;;;;;7.62;100.00;99413.34;4994622;28;20343;-54
2022/10/09 00:50:00;;;;;;;0.00;0.00;;;;;;;7.58;100.00;99411.91;4982019;28;20254;-53
2022/10/09 00:52:28;;;;;;;0.00;0.00;;;;;;;7.54;100.00;99403.50;4958718;28;20238;-52
2022/10/09 00:54:56;;;;;;;0.00;0.00;;;;;;;7.54;100.00;99400.09;4983568;28;20639;-54
2022/10/09 00:57:23;;;;;;;0.00;0.00;;;;;;;7.54;100.00;99413.09;4986619;28;20235;-53
2022/10/09 00:59:50;;;;;;;0.00;0.00;;;;;;;7.49;100.00;99403.00;4984273;28;20238;-53
2022/10/09 01:02:17;;;;;;;0.00;0.00;;;;;;;7.54;100.00;99406.09;4985234;28;20246;-55
2022/10/09 01:04:44;;;;;;;0.00;0.00;;;;;;;7.52;100.00;99405.38;4988795;28;20288;-52
2022/10/09 01:07:36;;;;;;;0.00;0.00;;;;;;;7.44;100.00;99399.91;4983667;28;20238;-54
2022/10/09 01:10:12;;;;;;;0.00;0.00;;;;;;;7.49;100.00;99402.19;4984990;28;20237;-55
2022/10/09 01:12:46;;;;;;;0.00;0.00;;;;;;;7.44;100.00;99394.72;4985235;28;20233;-53
2022/10/09 01:15:19;;;;;;;0.00;0.00;;;;;;;7.41;100.00;99391.53;4966208;28;20233;-54
2022/10/09 01:17:55;;;;;;;0.00;0.00;;;;;;;7.33;100.00;99386.91;4984705;28;20349;-52
2022/10/09 01:20:30;;;;;;;0.00;0.00;;;;;;;7.39;100.00;99395.06;4984344;28;20355;-52
2022/10/09 01:23:23;;;;;;;0.00;0.00;;;;;;;7.35;100.00;99385.84;4984052;28;20292;-53
2022/10/09 01:26:05;;;;;;;0.00;0.00;;;;;;;7.26;100.00;99372.72;4983951;28;20296;-52
2022/10/09 01:28:35;;;;;;;0.00;0.00;;;;;;;7.33;100.00;99376.53;4988030;28;20295;-54
2022/10/09 01:31:06;;;;;;;0.00;0.00;;;;;;;7.22;100.00;99365.13;4982313;28;20238;-53
2022/10/09 01:33:33;;;;;;;0.00;0.00;;;;;;;7.26;100.00;99370.94;4989310;28;20225;-54
2022/10/09 01:36:01;;;;;;;0.00;0.00;;;;;;;7.22;100.00;99370.34;4983446;28;20238;-52
2022/10/09 01:38:33;;;;;;;0.00;0.00;;;;;;;7.20;100.00;99358.38;4971084;28;20226;-53
2022/10/09 01:41:03;;;;;;;0.00;0.00;;;;;;;7.22;100.00;99361.69;4982617;28;20760;-53
2022/10/09 01:43:30;;;;;;;0.00;0.00;;;;;;;7.26;100.00;99355.34;4986689;28;20293;-55
2022/10/09 01:46:20;;;;;;;0.00;0.00;;;;;;;7.28;100.00;99347.47;4982909;28;20237;-53
2022/10/09 01:48:54;;;;;;;0.00;0.00;;;;;;;7.21;100.00;99347.91;4987077;28;20538;-53
2022/10/09 01:51:23;;;;;;;0.00;0.00;;;;;;;7.18;100.00;99349.88;4983660;28;20312;-53
2022/10/09 01:53:54;;;;;;;0.00;0.00;;;;;;;7.20;100.00;99342.81;4982243;28;21225;-51
2022/10/09 01:56:26;;;;;;;0.00;0.00;;;;;;;7.15;100.00;99340.56;4986753;28;21066;-55
2022/10/09 01:58:56;;;;;;;0.00;0.00;;;;;;;7.18;100.00;99345.53;4984339;28;20227;-54
2022/10/09 02:05:20;;;;;;;0.00;0.00;;;;;;;7.35;100.00;99335.69;4963457;28;20225;-52
2022/10/09 02:07:47;;;;;;;0.00;0.00;;;;;;;7.30;100.00;99323.03;4982215;28;20276;-56
2022/10/09 02:10:15;;;;;;;0.00;0.00;;;;;;;7.29;100.00;99317.94;4983590;28;20247;-54
2022/10/09 02:12:45;;;;;;;0.00;0.00;;;;;;;7.32;100.00;99318.53;4956649;28;20706;-52
2022/10/09 02:15:13;;;;;;;0.00;0.00;;;;;;;7.41;100.00;99313.59;4982575;28;20649;-54
2022/10/09 02:17:46;;;;;;;0.00;0.00;;;;;;;7.43;100.00;99315.13;4985221;28;20288;-54
2022/10/09 02:20:20;;;;;;;0.00;0.00;;;;;;;7.38;100.00;99309.47;4982894;28;20694;-53
2022/10/09 02:22:46;;;;;;;0.00;0.00;;;;;;;7.34;100.00;99308.06;4985133;28;20292;-55
2022/10/09 02:25:13;;;;;;;0.00;0.00;;;;;;;7.29;100.00;99317.94;4982697;28;20367;-53
2022/10/09 02:27:40;;;;;;;0.00;0.00;;;;;;;7.31;100.00;99309.09;4987155;28;20224;-56
2022/10/09 02:30:09;;;;;;;0.00;0.00;;;;;;;7.36;100.00;99308.78;4982383;28;20231;-53
2022/10/09 02:32:36;;;;;;;0.00;0.00;;;;;;;7.35;100.00;99304.53;4986244;28;20561;-55
2022/10/09 02:35:05;;;;;;;0.00;0.00;;;;;;;7.31;100.00;99298.69;4982090;28;20268;-52
2022/10/09 02:37:31;;;;;;;0.00;0.00;;;;;;;7.36;100.00;99300.97;4984642;28;20229;-56
2022/10/09 02:39:58;;;;;;;0.00;0.00;;;;;;;7.31;100.00;99297.91;4982643;28;20229;-53
2022/10/09 02:42:25;;;;;;;0.00;0.00;;;;;;;7.43;100.00;99298.75;4987621;28;20641;-55
2022/10/09 02:44:52;;;;;;;0.00;0.00;;;;;;;7.43;100.00;99302.16;4981557;28;20238;-53
2022/10/09 02:47:18;;;;;;;0.00;0.00;;;;;;;7.44;100.00;99292.59;4986268;28;20238;-53
2022/10/09 02:49:45;;;;;;;0.00;0.00;;;;;;;7.52;100.00;99287.66;4967222;28;20233;-56
2022/10/09 02:52:13;;;;;;;0.00;0.00;;;;;;;7.57;100.00;99293.34;4969960;28;20241;-56
2022/10/09 02:54:40;;;;;;;0.00;0.00;;;;;;;7.73;100.00;99290.41;4989959;28;20226;-57
2022/10/09 02:57:06;;;;;;;0.00;0.00;;;;;;;7.90;100.00;99291.75;4985347;28;20241;-53
2022/10/09 02:59:33;;;;;;;0.00;0.00;;;;;;;8.05;100.00;99289.72;4991934;28;20214;-54
2022/10/09 03:01:59;;;;;;;0.00;0.00;;;;;;;8.02;100.00;99291.72;5010014;23;20241;-62
2022/10/09 03:04:26;;;;;;;0.00;0.00;;;;;;;8.12;100.00;99293.50;4968498;28;20235;-62
2022/10/09 03:06:52;;;;;;;0.00;0.00;;;;;;;8.10;100.00;99286.75;4965988;28;20230;-62
2022/10/09 03:09:20;;;;;;;0.00;0.00;;;;;;;8.13;100.00;99286.53;4968843;28;20298;-62
2022/10/09 03:11:47;;;;;;;0.00;0.00;;;;;;;8.25;100.00;99289.97;4966826;28;20274;-62
2022/10/09 03:14:13;;;;;;;0.00;0.00;;;;;;;8.30;100.00;99287.84;4965928;28;20231;-62
2022/10/09 03:16:40;;;;;;;0.00;0.00;;;;;;;8.42;100.00;99286.03;4968548;28;20297;-62
2022/10/09 03:19:06;;;;;;;0.00;0.00;;;;;;;8.38;100.00;99285.47;4965572;28;20226;-62
2022/10/09 03:21:33;;;;;;;0.00;0.00;;;;;;;8.38;100.00;99293.28;4967819;28;20668;-62
2022/10/09 03:24:00;;;;;;;0.00;0.00;;;;;;;8.59;100.00;99282.13;4965383;28;20617;-62
2022/10/09 03:26:28;;;;;;;0.00;0.00;;;;;;;8.59;100.00;99289.13;4968427;28;20243;-62
2022/10/09 03:28:55;;;;;;;0.00;0.00;;;;;;;8.58;100.00;99283.06;4965899;28;20234;-62
2022/10/09 03:31:24;;;;;;;0.00;0.00;;;;;;;8.60;100.00;99282.97;4967931;28;20532;-62
2022/10/09 03:33:51;;;;;;;0.00;0.00;;;;;;;8.61;100.00;99280.22;4965372;28;20231;-62
2022/10/09 03:36:18;;;;;;;0.00;0.00;;;;;;;8.48;100.00;99282.13;4967856;28;20235;-62
2022/10/09 03:38:45;;;;;;;0.00;0.00;;;;;;;8.43;100.00;99290.28;4968211;28;20299;-62
2022/10/09 03:41:11;;;;;;;0.00;0.00;;;;;;;8.40;100.00;99283.56;4965310;28;20683;-62
2022/10/09 03:43:39;;;;;;;0.00;0.00;;;;;;;8.40;100.00;99285.31;4967254;28;20854;-62
2022/10/09 03:46:07;;;;;;;0.00;0.00;;;;;;;8.38;100.00;99282.88;4964625;28;20234;-62
2022/10/09 03:48:34;;;;;;;0.00;0.00;;;;;;;8.42;100.00;99276.47;4950375;28;20255;-62
2022/10/09 03:51:01;;;;;;;0.00;0.00;;;;;;;8.75;100.00;99286.09;4964171;28;20247;-62
2022/10/09 03:53:28;;;;;;;0.00;0.00;;;;;;;8.89;100.00;99293.63;4967868;28;20230;-62
2022/10/09 03:55:55;;;;;;;0.00;0.00;;;;;;;8.64;100.00;99282.59;4963650;28;20240;-62
2022/10/09 03:58:21;;;;;;;0.00;0.00;;;;;;;8.64;100.00;99282.59;4968034;28;20290;-62
2022/10/09 04:00:51;;;;;;;0.00;0.00;;;;;;;8.70;100.00;99279.50;4967110;28;20236;-62
2022/10/09 04:03:18;;;;;;;0.00;0.00;;;;;;;8.70;100.00;99286.50;4964031;28;20227;-62
2022/10/09 04:05:44;;;;;;;0.00;0.00;;;;;;;8.71;100.00;99285.53;4967241;28;20231;-62
2022/10/09 04:08:11;;;;;;;0.00;0.00;;;;;;;8.71;100.00;99280.34;4964981;28;20223;-62
2022/10/09 04:10:38;;;;;;;0.00;0.00;;;;;;;8.73;100.00;99282.81;4967341;28;20323;-62
2022/10/09 04:13:05;;;;;;;0.00;0.00;;;;;;;8.56;100.00;99285.81;4938296;28;20243;-62
2022/10/09 04:15:35;;;;;;;0.00;0.00;;;;;;;8.45;100.00;99285.78;4967232;28;20726;-62
2022/10/09 04:18:06;;;;;;;0.00;0.00;;;;;;;8.31;100.00;99278.25;4963106;28;20232;-62
2022/10/09 04:20:33;;;;;;;0.00;0.00;;;;;;;8.50;100.00;99275.88;4967551;28;20237;-62
2022/10/09 04:22:59;;;;;;;0.00;0.00;;;;;;;8.57;100.00;99282.25;4964051;28;20238;-62
2022/10/09 04:25:26;;;;;;;0.00;0.00;;;;;;;8.60;100.00;99275.16;4967198;28;21070;-62
2022/10/09 04:27:53;;;;;;;0.00;0.00;;;;;;;8.68;100.00;99281.38;4964126;28;20332;-62
2022/10/09 04:30:19;;;;;;;0.00;0.00;;;;;;;8.63;100.00;99277.50;4967196;28;20303;-62
2022/10/09 04:32:47;;;;;;;0.00;0.00;;;;;;;8.62;100.00;99278.47;4967092;28;20239;-62
2022/10/09 04:35:16;;;;;;;0.00;0.00;;;;;;;8.51;100.00;99277.53;4964484;28;20259;-62
2022/10/09 04:37:42;;;;;;;0.00;0.00;;;;;;;8.56;100.00;99277.16;4965567;28;20571;-62
2022/10/09 04:40:09;;;;;;;0.00;0.00;;;;;;;8.65;100.00;99278.22;4963936;28;20411;-62
2022/10/09 04:42:36;;;;;;;0.00;0.00;;;;;;;8.71;99.13;99281.16;4966586;28;20239;-62
2022/10/09 04:45:02;;;;;;;0.00;0.00;;;;;;;8.75;98.22;99275.69;4936632;28;20252;-62
2022/10/09 04:47:30;;;;;;;0.00;0.00;;;;;;;8.82;99.07;99277.69;4966770;28;20226;-62
2022/10/09 04:49:56;;;;;;;0.00;0.00;;;;;;;8.86;96.63;99276.50;4963702;28;20240;-62
2022/10/09 04:52:24;;;;;;;0.00;0.00;;;;;;;8.82;96.93;99266.44;4968001;28;20298;-62
2022/10/09 04:54:50;;;;;;;0.00;0.00;;;;;;;8.84;97.17;99275.81;4946542;28;20291;-62
2022/10/09 04:57:17;;;;;;;0.00;0.00;;;;;;;8.83;96.99;99278.50;4966711;28;20239;-62
2022/10/09 04:59:44;;;;;;;0.00;0.00;;;;;;;8.77;95.86;99272.03;4966461;28;20713;-62
2022/10/09 05:02:10;;;;;;;0.00;0.00;;;;;;;8.73;96.46;99275.00;4963370;28;20247;-62
2022/10/09 05:04:38;;;;;;;0.00;0.00;;;;;;;8.83;93.76;99271.53;4965954;28;20235;-62
2022/10/09 05:07:04;;;;;;;0.00;0.00;;;;;;;8.79;95.16;99270.13;4962992;28;20239;-62
2022/10/09 05:09:32;;;;;;;0.00;0.00;;;;;;;8.80;94.55;99268.34;4966689;28;20272;-62
2022/10/09 05:11:59;;;;;;;0.00;0.00;;;;;;;8.70;94.91;99274.28;4963440;28;20239;-62
2022/10/09 05:14:25;;;;;;;0.00;0.00;;;;;;;8.65;95.42;99267.81;4965246;28;20672;-62
2022/10/09 05:16:52;;;;;;;0.00;0.00;;;;;;;8.52;95.62;99273.16;4963436;28;20577;-62
2022/10/09 05:19:19;;;;;;;0.00;0.00;;;;;;;8.47;96.14;99273.50;4964094;28;20330;-62
2022/10/09 05:21:45;;;;;;;0.00;0.00;;;;;;;8.40;97.35;99270.56;4966248;28;20306;-62
2022/10/09 05:24:12;;;;;;;0.00;0.00;;;;;;;8.35;97.76;99267.50;4963488;28;20315;-62
2022/10/09 05:26:40;;;;;;;0.00;0.00;;;;;;;8.33;97.13;99265.94;4965188;28;20306;-62
2022/10/09 05:29:06;;;;;;;0.03;0.03;;;;;;;8.27;96.16;99257.69;4963529;28;20231;-62
2022/10/09 05:31:33;;;;;;;0.00;0.00;;;;;;;8.45;94.59;99264.16;4966129;28;20238;-62
2022/10/09 05:34:01;;;;;;;0.00;0.00;;;;;;;8.44;94.64;99259.91;4963546;28;20256;-62
2022/10/09 05:36:27;;;;;;;0.00;0.00;;;;;;;8.41;94.74;99255.75;4966307;28;20231;-62
2022/10/09 05:38:54;;;;;;;0.00;0.00;;;;;;;8.61;91.34;99263.81;4963572;28;21306;-62
2022/10/09 05:41:21;;;;;;;0.00;0.00;;;;;;;8.49;92.69;99256.03;4965816;28;20239;-62
2022/10/09 05:43:50;;;;;;;0.00;0.00;;;;;;;8.68;90.03;99259.75;4966111;28;20282;-63
2022/10/09 05:46:18;;;;;;;0.00;0.00;;;;;;;8.72;90.47;99258.56;4962594;28;20242;-63
2022/10/09 05:48:46;;;;;;;0.00;0.00;;;;;;;8.71;90.66;99256.91;4967183;28;20687;-63
2022/10/09 05:51:14;;;;;;;0.00;0.00;;;;;;;8.71;88.75;99264.72;4963108;28;20243;-63
2022/10/09 05:53:42;;;;;;;0.00;0.00;;;;;;;8.64;90.78;99264.38;4965670;28;20315;-63
2022/10/09 05:56:14;;;;;;;0.00;0.00;;;;;;;8.67;90.20;99251.09;4963404;28;20248;-63
2022/10/09 05:58:41;;;;;;;0.00;0.00;;;;;;;8.89;86.83;99254.59;4965403;28;20235;-63
2022/10/09 06:01:08;;;;;;;0.00;0.00;;;;;;;9.16;83.19;99264.53;4963131;28;20242;-63
2022/10/09 06:03:36;;;;;;;0.00;0.00;;;;;;;9.32;81.40;99262.44;4965543;28;20999;-63
2022/10/09 06:06:04;;;;;;;0.00;0.00;;;;;;;9.32;83.17;99262.44;4962967;28;20247;-63
2022/10/09 06:08:32;;;;;;;0.00;0.00;;;;;;;9.43;80.34;99262.38;4965923;28;20704;-63
2022/10/09 06:10:59;;;;;;;0.00;0.00;;;;;;;9.55;80.58;99260.53;4962552;28;20323;-63
2022/10/09 06:13:26;;;;;;;0.00;0.00;;;;;;;9.53;79.98;99258.06;4955507;28;20286;-63
2022/10/09 06:15:53;;;;;;;0.00;0.00;;;;;;;9.46;79.66;99264.75;4962569;28;20298;-63
2022/10/09 06:18:21;;;;;;;0.00;0.00;;;;;;;9.39;81.05;99266.19;4963543;28;20236;-63
2022/10/09 06:20:54;;;;;;;0.00;0.00;;;;;;;9.65;78.22;99257.97;4964488;28;20775;-63
2022/10/09 06:23:21;;;;;;;0.00;0.00;;;;;;;9.79;76.97;99254.22;4962874;28;20642;-63
2022/10/09 06:25:52;;;;;;;0.00;0.00;;;;;;;9.90;75.97;99252.31;4966037;28;20298;-63
2022/10/09 06:28:18;;;;;;;0.00;0.00;;;;;;;9.83;76.47;99261.63;4966930;28;20290;-63
2022/10/09 06:30:45;;;;;;;0.00;0.00;;;;;;;9.88;76.25;99259.44;4969402;28;20642;-63
2022/10/09 06:33:12;;;;;;;0.00;0.00;;;;;;;10.03;74.82;99256.50;4966174;28;20300;-63
2022/10/09 06:35:40;;;;;;;0.00;0.00;;;;;;;10.00;74.17;99261.97;4968815;28;20308;-63
2022/10/09 06:38:07;;;;;;;0.00;0.00;;;;;;;9.94;75.35;99262.50;4966196;28;20231;-63
2022/10/09 06:40:35;;;;;;;0.00;0.00;;;;;;;9.88;75.19;99263.84;4968810;28;20237;-63
2022/10/09 06:43:02;;;;;;;0.00;0.00;;;;;;;9.90;75.12;99272.38;4965466;28;20255;-63
2022/10/09 06:45:28;;;;;;;0.00;0.00;;;;;;;9.91;74.67;99263.59;4969587;28;20224;-63
2022/10/09 06:47:55;;;;;;;0.00;0.00;;;;;;;9.95;74.65;99264.16;4966097;28;20311;-63
2022/10/09 06:50:22;;;;;;;0.00;0.00;;;;;;;10.04;74.01;99258.97;4969116;28;20232;-63
2022/10/09 06:52:50;;;;;;;0.00;0.00;;;;;;;10.02;74.40;99268.72;4968165;28;20244;-63
2022/10/09 06:55:17;;;;;;;0.00;0.00;;;;;;;9.96;75.48;99266.63;4965973;28;20244;-63
2022/10/09 06:57:43;;;;;;;0.00;0.00;;;;;;;10.02;76.25;99275.72;4968721;28;20645;-63
2022/10/09 07:00:11;;;;;;;0.00;0.00;;;;;;;10.02;75.21;99271.34;4965887;28;20645;-63
2022/10/09 07:02:38;;;;;;;0.00;0.00;;;;;;;10.03;75.95;99270.38;4968059;28;20234;-63
2022/10/09 07:05:05;;;;;;;0.00;0.00;;;;;;;10.04;75.37;99277.25;4965898;28;20376;-63
2022/10/09 07:07:32;;;;;;;0.00;0.00;;;;;;;10.06;75.38;99286.72;4968464;28;20715;-63
2022/10/09 07:10:00;;;;;;;0.00;0.00;;;;;;;10.04;75.27;99279.00;4965807;28;20242;-63
2022/10/09 07:12:26;;;;;;;0.00;0.00;;;;;;;10.05;73.82;99275.44;4968266;28;20793;-63
2022/10/09 07:14:53;;;;;;;0.00;0.00;;;;;;;10.08;74.82;99275.19;4965304;28;20240;-62
2022/10/09 07:17:20;;;;;;;0.00;0.00;;;;;;;10.10;75.62;99275.88;4968760;28;20243;-62
2022/10/09 07:19:48;;;;;;;0.00;0.00;;;;;;;10.08;75.77;99280.41;4968435;28;20728;-62
2022/10/09 07:22:15;;;;;;;0.00;0.00;;;;;;;10.14;76.67;99276.44;4965471;28;20241;-62
2022/10/09 07:24:41;;;;;;;0.00;0.00;;;;;;;10.14;74.66;99281.66;4968524;28;20240;-63
2022/10/09 07:27:09;;;;;;;0.00;0.00;;;;;;;10.20;75.26;99283.72;4965726;28;20279;-63
2022/10/09 07:29:36;;;;;;;0.00;0.00;;;;;;;10.22;75.71;99271.38;4967581;28;20243;-63
2022/10/09 07:32:02;;;;;;;0.00;0.00;;;;;;;10.27;74.45;99276.22;4964137;28;20233;-63
2022/10/09 07:34:29;;;;;;;0.00;0.00;;;;;;;10.34;73.94;99265.09;4968194;28;20274;-63
2022/10/09 07:36:56;;;;;;;0.00;0.00;;;;;;;10.39;73.59;99272.56;4965361;28;20254;-63
2022/10/09 07:39:22;;;;;;;0.00;0.00;;;;;;;10.43;75.52;99276.56;4967238;28;20311;-63
2022/10/09 07:41:50;;;;;;;0.00;0.00;;;;;;;10.51;75.35;99267.25;4967618;28;20219;-63
2022/10/09 07:44:18;;;;;;;0.00;0.00;;;;;;;10.52;74.84;99268.91;4966379;28;20227;-63
2022/10/09 07:46:45;;;;;;;0.00;0.00;;;;;;;10.59;74.27;99264.78;4967823;28;20230;-63
2022/10/09 07:49:12;;;;;;;0.00;0.00;;;;;;;10.67;72.62;99264.91;4965470;28;20235;-63
2022/10/09 07:51:38;;;;;;;0.00;0.00;;;;;;;10.70;73.99;99267.25;4967749;28;20233;-63
2022/10/09 07:54:05;;;;;;;0.00;0.00;;;;;;;10.68;75.27;99270.97;4965042;28;20240;-63
2022/10/09 07:56:33;;;;;;;0.00;0.00;;;;;;;10.82;73.58;99267.97;4967806;28;20326;-63
2022/10/09 07:59:01;;;;;;;0.00;0.00;;;;;;;10.90;74.79;99269.88;4964521;28;20310;-63
2022/10/09 08:01:30;;;;;;;0.00;0.00;;;;;;;10.89;75.98;99269.06;4967376;28;20743;-63
2022/10/09 08:03:58;;;;;;;0.00;0.00;;;;;;;10.88;76.24;99270.03;4964762;28;20240;-63
2022/10/09 08:06:25;;;;;;;0.00;0.00;;;;;;;11.09;72.80;99261.22;4967493;28;20239;-63
2022/10/09 08:08:53;;;;;;;0.00;0.00;;;;;;;11.36;70.16;99264.91;4955612;28;20258;-63
2022/10/09 08:11:22;;;;;;;0.00;0.00;;;;;;;11.55;67.88;99273.66;4957367;28;20319;-63
2022/10/09 08:13:50;;;;;;;0.00;0.00;;;;;;;11.70;68.69;99271.41;4967284;28;20247;-63
2022/10/09 08:16:18;;;;;;;0.00;0.00;;;;;;;11.82;67.70;99272.91;4965252;28;20689;-63
2022/10/09 08:18:46;;;;;;;0.00;0.00;;;;;;;11.93;67.04;99271.91;4950303;28;20245;-63
2022/10/09 08:21:15;;;;;;;0.00;0.00;;;;;;;12.06;64.62;99269.84;4964418;28;20244;-63
2022/10/09 08:23:42;;;;;;;0.00;0.00;;;;;;;12.18;65.09;99267.84;4967598;28;20251;-63
2022/10/09 08:26:13;;;;;;;0.00;0.00;;;;;;;12.22;66.43;99277.03;4964681;28;20251;-63
2022/10/09 08:28:39;;;;;;;0.00;0.00;;;;;;;12.30;64.41;99276.31;4966610;28;20278;-63
2022/10/09 08:31:10;;;;;;;0.00;0.00;;;;;;;12.46;64.08;99267.84;4963413;28;20240;-63
2022/10/09 08:33:37;;;;;;;0.00;0.00;;;;;;;12.51;63.75;99270.00;4967127;28;20225;-63
2022/10/09 08:36:07;;;;;;;0.00;0.00;;;;;;;12.60;64.44;99270.91;4964326;28;20669;-63
2022/10/09 08:38:34;;;;;;;0.00;0.00;;;;;;;12.74;63.56;99270.38;4967336;28;20295;-63
2022/10/09 08:41:05;;;;;;;0.00;0.00;;;;;;;12.79;64.23;99275.19;4964193;28;20239;-63
2022/10/09 08:43:36;;;;;;;0.00;0.00;;;;;;;12.87;62.06;99269.19;4967022;28;20226;-63
2022/10/09 08:46:07;;;;;;;0.00;0.00;;;;;;;12.95;65.57;99264.88;4964105;28;20237;-63
2022/10/09 08:48:40;;;;;;;0.00;0.00;;;;;;;12.97;66.68;99267.31;4966644;28;20237;-63
2022/10/09 08:51:18;;;;;;;0.00;0.00;;;;;;;13.05;62.99;99264.78;4962039;28;20292;-63
2022/10/09 08:53:49;;;;;;;0.00;0.00;;;;;;;13.07;63.70;99256.78;4966875;28;20705;-63
2022/10/09 08:56:15;;;;;;;0.00;0.00;;;;;;;13.17;62.63;99262.75;4942975;28;20237;-63
2022/10/09 08:58:44;;;;;;;0.00;0.00;;;;;;;13.28;62.06;99251.19;4966537;28;20288;-63
2022/10/09 09:01:21;;;;;;;0.00;0.00;;;;;;;13.39;62.56;99252.72;4961302;28;20256;-63
2022/10/09 09:04:17;;;;;;;0.00;0.00;;;;;;;13.48;62.54;99248.41;4966516;28;20261;-63
2022/10/09 09:06:52;;;;;;;0.00;0.00;;;;;;;13.57;63.56;99250.91;4963972;28;20252;-63
2022/10/09 09:09:26;;;;;;;0.00;0.00;;;;;;;13.63;63.81;99253.91;4964003;28;20229;-63
2022/10/09 09:12:00;;;;;;;0.00;0.00;;;;;;;13.66;62.98;99246.56;4962743;28;20320;-63
2022/10/09 09:14:42;;;;;;;0.00;0.00;;;;;;;13.72;62.69;99243.31;4966205;28;20245;-63
2022/10/09 09:17:17;;;;;;;0.00;0.00;;;;;;;13.78;62.81;99247.09;5120576;23;20577;-63
2022/10/09 09:19:53;;;;;;;0.00;0.00;;;;;;;13.83;59.77;99241.38;4968366;28;20306;-63
2022/10/09 09:25:45;;;;;;;0.00;0.00;;;;;;;14.01;60.65;99234.22;5710051;23;20229;-63
2022/10/09 09:28:17;;;;;;;0.00;0.00;;;;;;;14.07;61.34;99234.59;4901709;29;20251;-63
2022/10/09 09:30:48;;;;;;;0.00;0.00;;;;;;;14.18;60.39;99229.03;4909265;29;20639;-63
2022/10/09 09:33:21;;;;;;;0.00;0.00;;;;;;;14.21;59.15;99231.34;4908079;29;20280;-63
2022/10/09 09:35:55;;;;;;;0.00;0.00;;;;;;;14.23;58.51;99224.13;4914587;29;20236;-63
2022/10/09 09:38:22;;;;;;;0.00;0.00;;;;;;;14.35;58.62;99214.16;4913950;29;20240;-63
2022/10/09 09:40:50;;;;;;;0.00;0.00;;;;;;;14.47;58.99;99217.31;4907151;29;20231;-63
2022/10/09 09:43:19;;;;;;;0.00;0.00;;;;;;;14.47;58.29;99212.88;4901674;29;20229;-63
2022/10/09 09:45:47;;;;;;;0.00;0.00;;;;;;;14.58;58.13;99198.63;4901967;29;20273;-63
2022/10/09 09:48:18;;;;;;;0.00;0.00;;;;;;;14.65;59.94;99208.47;4905098;29;20288;-63
2022/10/09 09:50:45;;;;;;;0.00;0.00;;;;;;;14.72;57.79;99210.31;4912504;29;20291;-62
2022/10/09 09:53:20;;;;;;;0.00;0.00;;;;;;;14.72;57.83;99204.25;4908553;29;20246;-62
2022/10/09 09:55:53;;;;;;;0.00;0.00;;;;;;;14.72;58.13;99193.72;4902386;29;20283;-62
2022/10/09 09:58:21;;;;;;;0.00;0.00;;;;;;;14.74;57.27;99199.66;4900208;29;20315;-62
2022/10/09 10:00:53;;;;;;;0.00;0.00;;;;;;;14.73;58.58;99182.22;4911255;29;20785;-62
2022/10/09 10:03:20;;;;;;;0.00;0.00;;;;;;;14.81;57.52;99186.66;4917803;29;20707;-62
2022/10/09 10:05:47;;;;;;;0.00;0.00;;;;;;;14.89;57.49;99174.31;4916319;29;20567;-62
2022/10/09 10:08:21;;;;;;;0.00;0.00;;;;;;;14.97;58.20;99176.13;4915721;29;20414;-62
2022/10/09 10:10:49;;;;;;;0.00;0.00;;;;;;;15.04;55.44;99171.84;4884334;29;20232;-62
2022/10/09 10:13:19;;;;;;;0.00;0.00;;;;;;;14.94;58.47;99171.22;4912066;29;20666;-62
2022/10/09 10:15:52;;;;;;;0.00;0.00;;;;;;;15.03;56.34;99169.38;4914088;29;20321;-62
2022/10/09 10:18:20;;;;;;;0.00;0.00;;;;;;;15.09;56.25;99167.91;4913301;29;20227;-62
2022/10/09 10:20:49;;;;;;;0.00;0.00;;;;;;;15.11;56.86;99173.81;4914151;29;20233;-62
2022/10/09 10:23:38;;;;;;;0.00;0.00;;;;;;;15.23;55.16;99161.13;4912047;29;20696;-62
2022/10/09 10:26:09;;;;;;;0.00;0.00;;;;;;;15.16;57.71;99161.00;4904931;29;20561;-63
2022/10/09 10:28:47;;;;;;;0.00;0.00;;;;;;;15.26;57.13;99145.03;4911596;29;20229;-63
2022/10/09 10:31:24;;;;;;;0.00;0.00;;;;;;;15.35;57.66;99141.38;4914144;29;20819;-63
2022/10/09 10:33:55;;;;;;;0.00;0.00;;;;;;;15.52;58.40;99150.03;4918619;29;20699;-63
2022/10/09 10:36:24;;;;;;;0.00;0.00;;;;;;;15.65;56.27;99145.06;4916970;29;20440;-63
2022/10/09 10:38:58;;;;;;;0.00;0.00;;;;;;;15.48;56.01;99127.69;4923932;29;20238;-63
2022/10/09 10:41:30;;;;;;;0.00;0.00;;;;;;;15.56;56.47;99137.38;4920547;29;20228;-63
2022/10/09 10:44:06;;;;;;;0.00;0.00;;;;;;;15.57;56.79;99139.00;4909430;29;20235;-63
2022/10/09 10:46:42;;;;;;;0.00;0.00;;;;;;;15.69;56.50;99137.66;4916609;29;20237;-63
2022/10/09 10:49:11;;;;;;;0.00;0.00;;;;;;;15.71;55.17;99125.13;4915995;29;20235;-63
2022/10/09 10:51:56;;;;;;;0.00;0.00;;;;;;;15.77;55.03;99131.50;4923022;29;20249;-63
2022/10/09 10:54:33;;;;;;;0.00;0.00;;;;;;;15.84;55.06;99116.66;4898919;29;20308;-63
2022/10/09 10:57:08;;;;;;;0.00;0.00;;;;;;;15.88;55.64;99115.38;4906771;29;20237;-63
2022/10/09 10:59:47;;;;;;;0.00;0.00;;;;;;;15.98;54.43;99123.03;4910460;29;20235;-63
2022/10/09 11:02:48;;;;;;;0.00;0.00;;;;;;;16.08;52.58;99123.63;4910683;29;20236;-63
2022/10/09 11:05:38;;;;;;;0.00;0.00;;;;;;;16.17;52.84;99126.22;4896530;29;20237;-63
2022/10/09 11:08:17;;;;;;;0.00;0.00;;;;;;;16.17;53.94;99119.16;4917921;29;20233;-63
2022/10/09 11:10:55;;;;;;;0.00;0.00;;;;;;;16.24;53.49;99127.16;4908974;29;20240;-63
2022/10/09 11:13:27;;;;;;;0.00;0.00;;;;;;;16.33;52.90;99109.50;4904841;29;20228;-63
2022/10/09 11:16:06;;;;;;;0.00;0.00;;;;;;;16.28;53.00;99117.09;4916907;29;20300;-63
2022/10/09 11:18:52;;;;;;;0.00;0.00;;;;;;;16.28;51.21;99098.66;4912610;29;20343;-63
2022/10/09 11:21:32;;;;;;;0.00;0.00;;;;;;;16.36;52.16;99099.41;4908084;29;20700;-63
2022/10/09 11:24:17;;;;;;;0.00;0.00;;;;;;;16.39;52.71;99095.63;4908518;29;20275;-63
2022/10/09 11:26:52;;;;;;;0.00;0.00;;;;;;;16.48;53.26;99112.16;4906074;29;20249;-63
2022/10/09 11:29:23;;;;;;;0.00;0.00;;;;;;;16.40;51.29;99102.53;4906795;29;20312;-63
2022/10/09 11:31:58;;;;;;;0.00;0.00;;;;;;;16.45;50.34;99101.97;4915231;29;20234;-63
2022/10/09 11:34:29;;;;;;;0.00;0.00;;;;;;;16.50;51.19;99108.34;4907650;29;20301;-64
2022/10/09 11:36:57;;;;;;;0.00;0.00;;;;;;;16.56;50.32;99092.81;4901962;29;20234;-63
2022/10/09 11:39:29;;;;;;;0.00;0.00;;;;;;;16.70;51.26;99096.50;4912887;29;20260;-63
2022/10/09 11:41:57;;;;;;;0.00;0.00;;;;;;;16.66;52.23;99083.69;4895830;29;20317;-63
2022/10/09 11:44:36;;;;;;;0.00;0.00;;;;;;;16.80;52.31;99075.97;4916203;29;20301;-63
2022/10/09 11:47:14;;;;;;;0.00;0.00;;;;;;;16.89;51.84;99079.34;4901909;29;20721;-64
2022/10/09 11:49:57;;;;;;;0.00;0.00;;;;;;;16.93;51.47;99070.91;4907095;29;20325;-63
2022/10/09 11:52:32;;;;;;;0.00;0.00;;;;;;;17.00;52.26;99076.28;4909644;29;20238;-63